Time;durP1;ratioP1;P1;durP2;ratioP2;P2;SDS_P1;SDS_P2;PMS_P1;PMS_P2;Temp;Humidity;BMP_temperature;BMP_pressure;BME280_temperature;BME280_humidity;BME280_pressure;Samples;Min_cycle;Max_cycle;Signal;HPM_P1;HPM_P2
2021/03/23 00:01:38;;;;;;;31.40;9.20;;;;;;;1.45;63.80;100681.91;115097;1200;24785;-55
2021/03/23 00:04:08;;;;;;;35.87;10.20;;;;;;;1.36;63.85;100678.87;115161;1200;23195;-54
2021/03/23 00:06:36;;;;;;;27.95;7.93;;;;;;;1.33;64.08;100685.16;114990;1200;23114;-58
2021/03/23 00:09:07;;;;;;;30.20;8.70;;;;;;;1.31;64.04;100684.00;115021;1200;23120;-54
2021/03/23 00:11:36;;;;;;;;;;;;;;;1.26;64.03;100682.45;115128;1207;26689;-60
2021/03/23 00:14:06;;;;;;;31.90;9.10;;;;;;;1.22;64.25;100680.95;115266;1200;21638;-54
2021/03/23 00:16:40;;;;;;;32.10;10.00;;;;;;;1.18;64.31;100682.95;115542;1200;25977;-55
2021/03/23 00:19:11;;;;;;;32.00;7.75;;;;;;;1.16;64.42;100679.82;115217;1199;23102;-54
2021/03/23 00:21:41;;;;;;;25.30;7.50;;;;;;;1.14;64.50;100679.45;115214;1200;27074;-56
2021/03/23 00:24:10;;;;;;;28.15;6.95;;;;;;;1.10;64.49;100678.66;115260;1199;26233;-53
2021/03/23 00:26:39;;;;;;;27.85;8.30;;;;;;;1.09;64.53;100679.86;115263;1200;26239;-54
2021/03/23 00:29:08;;;;;;;26.17;7.10;;;;;;;1.05;64.72;100682.65;115242;1200;27266;-59
2021/03/23 00:31:37;;;;;;;26.30;8.40;;;;;;;1.03;64.72;100684.23;115167;1200;23109;-56
2021/03/23 00:34:08;;;;;;;25.43;7.37;;;;;;;1.02;64.79;100682.66;115404;1200;23246;-54
2021/03/23 00:36:40;;;;;;;25.30;6.10;;;;;;;1.00;65.01;100685.02;115170;1199;23166;-55
2021/03/23 00:39:11;;;;;;;28.17;7.60;;;;;;;0.99;65.05;100680.73;115274;1200;23105;-56
2021/03/23 00:41:42;;;;;;;31.17;9.00;;;;;;;0.99;65.04;100672.48;115184;1199;23330;-55
2021/03/23 00:44:13;;;;;;;30.95;8.65;;;;;;;0.98;64.83;100674.44;115163;1203;24600;-54
2021/03/23 00:46:42;;;;;;;30.40;9.03;;;;;;;0.97;64.85;100670.14;115322;1199;26246;-57
2021/03/23 00:49:11;;;;;;;29.57;7.67;;;;;;;0.97;65.04;100670.14;115128;1200;23109;-55
2021/03/23 00:51:40;;;;;;;25.75;6.90;;;;;;;0.96;65.07;100670.52;115265;1199;26593;-54
2021/03/23 00:54:09;;;;;;;25.17;8.13;;;;;;;0.94;65.13;100679.18;115411;1202;23925;-56
2021/03/23 00:56:38;;;;;;;28.67;8.80;;;;;;;0.93;65.03;100672.13;115252;1199;23112;-54
2021/03/23 00:59:07;;;;;;;37.20;9.67;;;;;;;0.92;65.22;100675.27;115271;1200;23166;-57
2021/03/23 01:01:36;;;;;;;34.40;9.45;;;;;;;0.91;65.22;100670.97;115213;1199;23112;-54
2021/03/23 01:04:06;;;;;;;29.50;8.80;;;;;;;0.88;65.37;100680.80;115167;1199;26703;-55
2021/03/23 01:06:35;;;;;;;30.95;9.15;;;;;;;0.86;65.29;100682.38;115223;1200;23365;-56
2021/03/23 01:09:04;;;;;;;31.90;10.53;;;;;;;0.85;65.54;100678.08;115145;1200;23109;-53
2021/03/23 01:11:33;;;;;;;35.77;10.77;;;;;;;0.84;65.65;100674.54;115073;1199;25965;-56
2021/03/23 01:14:02;;;;;;;33.23;9.87;;;;;;;0.84;65.67;100680.04;115247;1200;23106;-58
2021/03/23 01:16:31;;;;;;;29.10;8.80;;;;;;;0.83;65.69;100671.00;117071;1205;27252;-56
2021/03/23 01:19:00;;;;;;;29.70;8.40;;;;;;;0.83;65.87;100676.50;115244;1199;26082;-54
2021/03/23 01:21:29;;;;;;;32.30;8.70;;;;;;;0.85;65.78;100675.33;115360;1200;24889;-56
2021/03/23 01:23:58;;;;;;;23.40;7.20;;;;;;;0.85;66.09;100665.09;115198;1200;23128;-54
2021/03/23 01:26:27;;;;;;;22.15;7.10;;;;;;;0.86;66.25;100665.89;115199;1199;26328;-55
2021/03/23 01:28:56;;;;;;;28.60;7.70;;;;;;;0.87;66.07;100664.72;115492;1199;23101;-56
2021/03/23 01:31:25;;;;;;;24.27;7.27;;;;;;;0.87;66.35;100665.47;115185;1200;23105;-56
2021/03/23 01:33:55;;;;;;;28.20;6.73;;;;;;;0.88;66.28;100667.05;115285;1200;28025;-56
2021/03/23 01:36:24;;;;;;;28.20;6.80;;;;;;;0.90;66.38;100664.68;115447;1200;26836;-56
2021/03/23 01:38:53;;;;;;;26.90;7.05;;;;;;;0.90;66.29;100661.94;115197;1200;26237;-56
2021/03/23 01:41:22;;;;;;;28.60;7.15;;;;;;;0.93;66.30;100668.59;115267;1199;27383;-53
2021/03/23 01:43:52;;;;;;;27.60;7.13;;;;;;;0.95;66.37;100668.97;115207;1200;26086;-58
2021/03/23 01:46:39;;;;;;;25.87;6.70;;;;;;;0.96;66.38;100665.03;115248;1200;24615;-53
2021/03/23 01:49:13;;;;;;;31.10;7.95;;;;;;;0.97;66.57;100669.35;115051;1200;23135;-55
2021/03/23 01:51:43;;;;;;;26.47;7.43;;;;;;;0.98;66.57;100662.66;115343;1200;23081;-54
2021/03/23 01:54:16;;;;;;;25.60;6.05;;;;;;;0.99;66.62;100662.27;115391;1200;26067;-53
2021/03/23 01:56:46;;;;;;;22.00;5.95;;;;;;;1.01;66.66;100661.86;115300;1200;23171;-56
2021/03/23 01:59:15;;;;;;;25.80;6.68;;;;;;;1.04;66.68;100661.03;115327;1203;28514;-54
2021/03/23 02:01:45;;;;;;;24.78;6.63;;;;;;;1.05;66.63;100660.66;115400;1200;23105;-53
2021/03/23 02:04:14;;;;;;;25.20;6.80;;;;;;;1.08;66.76;100659.83;115332;1200;23087;-56
2021/03/23 02:06:45;;;;;;;23.40;6.50;;;;;;;1.10;66.74;100653.91;115312;1200;27449;-56
2021/03/23 02:09:18;;;;;;;22.90;6.30;;;;;;;1.11;66.65;100656.28;115360;1200;23106;-56
2021/03/23 02:11:50;;;;;;;26.20;7.25;;;;;;;1.12;66.90;100663.33;115394;1200;26047;-57
2021/03/23 02:14:23;;;;;;;24.37;7.47;;;;;;;1.13;66.84;100653.91;115270;1202;27294;-56
2021/03/23 02:16:53;;;;;;;30.50;7.30;;;;;;;1.14;66.91;100651.95;115347;1200;23120;-53
2021/03/23 02:19:24;;;;;;;20.75;5.45;;;;;;;1.13;66.77;100655.88;115230;1199;23138;-56
2021/03/23 02:21:53;;;;;;;22.90;6.95;;;;;;;1.14;66.81;100657.45;115416;1199;27283;-57
2021/03/23 02:24:22;;;;;;;22.80;6.30;;;;;;;1.11;67.00;100653.53;115491;1203;27218;-55
2021/03/23 02:26:51;;;;;;;25.00;6.00;;;;;;;1.11;67.11;100659.03;115247;1200;23173;-56
2021/03/23 02:29:21;;;;;;;25.50;6.80;;;;;;;1.10;66.98;100659.41;115352;1200;23099;-55
2021/03/23 02:31:52;;;;;;;25.80;5.93;;;;;;;1.08;66.89;100657.08;115292;1200;27518;-57
2021/03/23 02:34:23;;;;;;;22.10;5.67;;;;;;;1.07;67.29;100658.28;115414;1199;23313;-53
2021/03/23 02:36:53;;;;;;;24.85;5.90;;;;;;;1.05;67.13;100652.41;115378;1200;27236;-56
2021/03/23 02:39:26;;;;;;;28.15;6.40;;;;;;;1.05;67.12;100657.91;115487;1199;23071;-55
2021/03/23 02:41:56;;;;;;;24.40;6.25;;;;;;;1.04;67.20;100644.54;115354;1200;23236;-53
2021/03/23 02:44:27;;;;;;;25.23;5.60;;;;;;;1.03;67.31;100648.48;115462;1199;23136;-57
2021/03/23 02:46:56;;;;;;;23.77;6.17;;;;;;;1.04;67.41;100652.78;115389;1200;23230;-54
2021/03/23 02:49:25;;;;;;;27.00;5.97;;;;;;;1.03;67.40;100648.48;115259;1200;23243;-53
2021/03/23 02:51:54;;;;;;;25.75;6.20;;;;;;;1.01;67.53;100651.65;115124;1200;23115;-57
2021/03/23 02:54:23;;;;;;;24.75;5.55;;;;;;;0.99;67.37;100654.02;115337;1199;23157;-53
2021/03/23 02:56:53;;;;;;;26.53;5.63;;;;;;;0.98;67.64;100646.16;115363;1199;23259;-57
2021/03/23 02:59:21;;;;;;;21.93;5.33;;;;;;;0.98;67.66;100643.41;115328;1200;23211;-57
2021/03/23 03:01:51;;;;;;;25.80;5.55;;;;;;;0.97;67.75;100641.86;115414;1199;26281;-55
2021/03/23 03:04:19;;;;;;;28.07;5.97;;;;;;;0.96;67.79;100649.32;115349;1200;26384;-58
2021/03/23 03:06:48;;;;;;;22.05;5.95;;;;;;;0.95;67.90;100634.03;115415;1199;26703;-54
2021/03/23 03:09:17;;;;;;;30.63;6.53;;;;;;;0.94;67.99;100646.20;115293;1200;23104;-54
2021/03/23 03:11:46;;;;;;;24.30;5.93;;;;;;;0.94;67.91;100653.66;115281;1199;27255;-55
2021/03/23 03:14:15;;;;;;;28.10;6.50;;;;;;;0.92;68.00;100654.06;115420;1200;23109;-54
2021/03/23 03:16:44;;;;;;;22.20;5.53;;;;;;;0.92;68.12;100651.31;115254;1200;26008;-56
2021/03/23 03:19:13;;;;;;;26.40;7.07;;;;;;;0.93;68.14;100652.89;115253;1200;24769;-56
2021/03/23 03:21:42;;;;;;;29.70;6.97;;;;;;;0.96;68.06;100652.07;115232;1200;23544;-57
2021/03/23 03:24:12;;;;;;;25.07;5.97;;;;;;;0.99;68.32;100658.73;115198;1203;26246;-56
2021/03/23 03:26:41;;;;;;;21.85;4.70;;;;;;;1.01;68.39;100651.65;118542;1203;22873;-56
2021/03/23 03:29:10;;;;;;;21.73;5.10;;;;;;;1.04;68.49;100652.78;117288;1205;23158;-58
2021/03/23 03:31:39;;;;;;;26.13;5.40;;;;;;;1.06;68.47;100648.45;115390;1200;23105;-55
2021/03/23 03:34:08;;;;;;;20.35;4.65;;;;;;;1.10;68.75;100651.16;115255;1200;27316;-56
2021/03/23 03:36:37;;;;;;;25.40;4.60;;;;;;;1.09;68.61;100650.41;115235;1200;27245;-54
2021/03/23 03:39:06;;;;;;;23.90;5.63;;;;;;;1.12;68.69;100648.83;115305;1199;23109;-57
2021/03/23 03:41:36;;;;;;;22.73;5.43;;;;;;;1.16;68.47;100647.58;115269;1203;23112;-55
2021/03/23 03:44:06;;;;;;;21.23;5.03;;;;;;;1.18;68.60;100641.70;115299;1200;24780;-58
2021/03/23 03:46:34;;;;;;;17.80;4.60;;;;;;;1.19;68.67;100641.28;115157;1200;23132;-56
2021/03/23 03:49:03;;;;;;;21.20;5.10;;;;;;;1.21;68.80;100649.13;114775;1203;23183;-58
2021/03/23 03:51:32;;;;;;;25.20;5.20;;;;;;;1.24;68.57;100648.33;114861;1203;23400;-55
2021/03/23 03:54:00;;;;;;;26.03;5.20;;;;;;;1.26;68.77;100651.45;114812;1199;23226;-58
2021/03/23 03:56:30;;;;;;;20.23;4.43;;;;;;;1.28;68.85;100654.58;115169;1199;23097;-54
2021/03/23 03:58:59;;;;;;;18.65;4.65;;;;;;;1.30;68.84;100661.23;115410;1200;26505;-53
2021/03/23 04:01:28;;;;;;;24.63;5.77;;;;;;;1.31;69.09;100673.00;115207;1199;23192;-56
2021/03/23 04:03:57;;;;;;;21.50;4.50;;;;;;;1.33;68.77;100657.66;115210;1199;23481;-57
2021/03/23 04:06:26;;;;;;;20.25;4.75;;;;;;;1.35;68.80;100660.78;115168;1200;24797;-54
2021/03/23 04:08:55;;;;;;;18.65;4.40;;;;;;;1.37;68.98;100666.66;115263;1200;23098;-56
2021/03/23 04:11:23;;;;;;;18.95;4.50;;;;;;;1.38;68.97;100665.48;115262;1199;23108;-55
2021/03/23 04:13:53;;;;;;;25.00;5.70;;;;;;;1.40;69.15;100657.61;115240;1200;26218;-54
2021/03/23 04:16:22;;;;;;;22.10;4.90;;;;;;;1.41;69.24;100663.87;115331;1200;23558;-54
2021/03/23 04:18:51;;;;;;;23.45;4.20;;;;;;;1.43;69.26;100653.23;115471;1200;26650;-57
2021/03/23 04:21:19;;;;;;;20.47;4.47;;;;;;;1.45;69.22;100654.40;115215;1200;23119;-54
2021/03/23 04:23:48;;;;;;;19.97;4.73;;;;;;;1.48;69.27;100672.07;115256;1200;23105;-54
2021/03/23 04:26:17;;;;;;;20.73;4.50;;;;;;;1.50;69.60;100678.73;115276;1200;27303;-56
2021/03/23 04:28:47;;;;;;;21.90;4.87;;;;;;;1.49;69.44;100679.15;115265;1203;23242;-56
2021/03/23 04:31:27;;;;;;;27.20;4.80;;;;;;;1.50;69.62;100673.23;115371;1200;23105;-53
2021/03/23 04:33:55;;;;;;;23.15;5.50;;;;;;;1.50;69.56;100678.73;115257;1203;23465;-56
2021/03/23 04:36:24;;;;;;;22.00;5.47;;;;;;;1.53;69.67;100685.41;115242;1203;23065;-53
2021/03/23 04:38:53;;;;;;;18.50;4.47;;;;;;;1.53;69.56;100694.41;115238;1200;23146;-57
2021/03/23 04:41:23;;;;;;;19.77;4.27;;;;;;;1.55;69.66;100691.28;115281;1200;27071;-53
2021/03/23 04:43:53;;;;;;;18.48;4.43;;;;;;;1.55;69.54;100703.05;115270;1200;24938;-53
2021/03/23 04:46:24;;;;;;;24.73;4.80;;;;;;;1.58;69.67;100693.98;115178;1200;23195;-53
2021/03/23 04:48:54;;;;;;;19.47;5.13;;;;;;;1.58;69.69;100693.98;115160;1200;25981;-57
2021/03/23 04:51:26;;;;;;;24.23;5.43;;;;;;;1.60;69.56;100696.33;115376;1200;23141;-59
2021/03/23 04:54:01;;;;;;;20.43;4.77;;;;;;;1.63;69.54;100695.52;115279;1200;23330;-56
2021/03/23 04:56:32;;;;;;;22.90;4.85;;;;;;;1.65;69.83;100704.16;115302;1199;27095;-56
2021/03/23 04:59:02;;;;;;;23.65;5.85;;;;;;;1.64;69.68;100688.81;115271;1200;24912;-60
2021/03/23 05:01:31;;;;;;;21.45;5.25;;;;;;;1.65;69.64;100698.65;115286;1200;23132;-57
2021/03/23 05:04:03;;;;;;;27.53;5.77;;;;;;;1.67;69.59;100698.23;115337;1199;23105;-56
2021/03/23 05:06:32;;;;;;;27.20;5.77;;;;;;;1.68;69.60;100699.81;115194;1200;23209;-55
2021/03/23 05:09:01;;;;;;;21.93;5.43;;;;;;;1.70;69.61;100705.69;115294;1201;23102;-56
2021/03/23 05:11:32;;;;;;;23.50;5.65;;;;;;;1.71;69.84;100709.98;115221;1200;26043;-56
2021/03/23 05:14:04;;;;;;;25.83;5.33;;;;;;;1.72;69.83;100715.08;115269;1200;27832;-56
2021/03/23 05:16:33;;;;;;;24.45;4.80;;;;;;;1.75;69.85;100711.52;115226;1203;23200;-55
2021/03/23 05:19:03;;;;;;;23.00;5.00;;;;;;;1.77;69.76;100719.37;115334;1200;23141;-56
2021/03/23 05:21:32;;;;;;;21.77;5.00;;;;;;;1.77;69.65;100720.16;115343;1200;23141;-55
2021/03/23 05:24:02;;;;;;;25.73;5.80;;;;;;;1.80;69.74;100724.06;115259;1200;26354;-53
2021/03/23 05:26:32;;;;;;;24.40;5.30;;;;;;;1.81;69.89;100725.62;115260;1200;23105;-56
2021/03/23 05:29:02;;;;;;;19.90;4.50;;;;;;;1.82;69.73;100716.95;115331;1200;27209;-56
2021/03/23 05:31:33;;;;;;;21.28;4.75;;;;;;;1.85;70.23;100723.61;115281;1200;23134;-57
2021/03/23 05:34:02;;;;;;;21.20;4.55;;;;;;;1.86;69.96;100716.93;115285;1205;23109;-56
2021/03/23 05:36:31;;;;;;;20.65;3.85;;;;;;;1.88;69.83;100720.84;115263;1200;23120;-53
2021/03/23 05:39:00;;;;;;;18.35;4.80;;;;;;;1.89;69.73;100719.64;115289;1200;23167;-56
2021/03/23 05:41:41;;;;;;;16.95;3.70;;;;;;;1.92;69.86;100729.84;115287;1200;27137;-56
2021/03/23 05:44:30;;;;;;;20.60;4.57;;;;;;;1.94;69.86;100719.20;115222;1202;23611;-54
2021/03/23 05:47:00;;;;;;;21.25;4.35;;;;;;;1.98;69.87;100725.45;115176;1200;26358;-56
2021/03/23 05:49:35;;;;;;;18.27;4.30;;;;;;;2.01;69.86;100721.08;115319;1200;23102;-53
2021/03/23 05:52:12;;;;;;;19.73;3.83;;;;;;;2.03;69.85;100725.00;115443;1199;23115;-54
2021/03/23 05:54:52;;;;;;;15.40;3.70;;;;;;;2.06;69.96;100723.40;115238;1199;23129;-57
2021/03/23 05:57:34;;;;;;;25.60;4.60;;;;;;;2.08;70.12;100730.06;115204;1203;23112;-53
2021/03/23 06:00:14;;;;;;;23.65;5.10;;;;;;;2.13;70.29;100740.63;115195;1200;28511;-54
2021/03/23 06:02:52;;;;;;;23.10;3.85;;;;;;;2.15;70.06;100738.23;115135;1200;23122;-55
2021/03/23 06:05:33;;;;;;;15.20;3.55;;;;;;;2.16;70.45;100741.78;115159;1200;23134;-55
2021/03/23 06:08:04;;;;;;;17.50;3.90;;;;;;;2.17;70.82;100744.12;114907;1199;25968;-57
2021/03/23 06:10:37;;;;;;;15.30;3.53;;;;;;;2.16;71.30;100742.57;115165;1200;23117;-56
2021/03/23 06:13:17;;;;;;;20.97;3.83;;;;;;;2.16;71.56;100750.83;114925;1199;23097;-57
2021/03/23 06:16:02;;;;;;;25.70;4.47;;;;;;;2.16;71.55;100744.53;114846;1200;23190;-57
2021/03/23 06:18:37;;;;;;;18.50;4.00;;;;;;;2.17;71.55;100744.12;115044;1200;24509;-57
2021/03/23 06:21:10;;;;;;;12.70;2.60;;;;;;;2.18;71.97;100745.69;115451;1200;23105;-57
2021/03/23 06:23:58;;;;;;;16.90;3.80;;;;;;;2.19;72.04;100750.00;116494;1199;23109;-58
2021/03/23 06:26:35;;;;;;;21.40;4.10;;;;;;;2.21;72.23;100742.13;115270;1200;24736;-55
2021/03/23 06:29:09;;;;;;;21.60;5.70;;;;;;;2.22;72.37;100740.92;114999;1200;23127;-57
2021/03/23 06:32:04;;;;;;;17.03;3.53;;;;;;;2.23;72.41;100736.99;115060;1203;27319;-58
2021/03/23 06:34:35;;;;;;;20.05;3.60;;;;;;;2.28;72.89;100749.52;115214;1200;23118;-58
2021/03/23 06:37:21;;;;;;;17.67;3.90;;;;;;;2.30;72.58;100744.38;115293;1200;23097;-60
2021/03/23 06:39:51;;;;;;;19.50;4.40;;;;;;;2.33;72.56;100741.59;115083;1200;23259;-59
2021/03/23 06:42:38;;;;;;;20.33;4.65;;;;;;;2.39;72.96;100758.45;115242;1203;23105;-55
2021/03/23 06:45:19;;;;;;;18.00;4.23;;;;;;;2.45;73.08;100754.05;115286;1200;23112;-56
2021/03/23 06:47:50;;;;;;;24.40;4.70;;;;;;;2.52;73.10;100753.98;115894;1199;23343;-59
2021/03/23 06:50:42;;;;;;;22.95;5.25;;;;;;;2.59;72.93;100761.38;115316;1200;23166;-58
2021/03/23 06:53:14;;;;;;;25.15;5.60;;;;;;;2.66;73.02;100756.55;115484;1200;23101;-59
2021/03/23 06:55:45;;;;;;;21.20;5.00;;;;;;;2.72;72.77;100760.41;117451;1200;23106;-56
2021/03/23 06:58:27;;;;;;;20.97;5.03;;;;;;;2.78;72.58;100763.48;115810;1200;23178;-59
2021/03/23 07:01:21;;;;;;;21.95;5.20;;;;;;;2.84;72.50;100764.59;115356;1200;23199;-58
2021/03/23 07:03:54;;;;;;;18.35;4.15;;;;;;;2.88;72.06;100759.80;115289;1200;27396;-56
2021/03/23 07:06:39;;;;;;;20.70;4.85;;;;;;;2.94;72.28;100766.41;115090;1200;24750;-60
2021/03/23 07:09:22;;;;;;;21.45;4.00;;;;;;;2.96;72.03;100761.30;115174;1200;24324;-58
2021/03/23 07:11:57;;;;;;;20.33;4.67;;;;;;;2.98;72.25;100761.66;115223;1202;24571;-60
2021/03/23 07:14:31;;;;;;;18.20;3.60;;;;;;;3.03;72.31;100769.45;115216;1200;23126;-57
2021/03/23 07:17:23;;;;;;;17.70;2.87;;;;;;;3.04;72.15;100765.52;115062;1200;23116;-58
2021/03/23 07:20:00;;;;;;;19.45;3.90;;;;;;;3.05;72.69;100764.30;115075;1199;25218;-56
2021/03/23 07:22:46;;;;;;;25.65;4.50;;;;;;;3.02;72.91;100765.15;116875;1199;24757;-55
2021/03/23 07:25:35;;;;;;;19.90;3.93;;;;;;;3.03;73.27;100773.00;115380;1202;23137;-55
2021/03/23 07:28:28;;;;;;;19.50;4.25;;;;;;;3.08;73.41;100772.52;114473;1206;27234;-56
2021/03/23 07:31:12;;;;;;;16.70;3.30;;;;;;;3.17;73.90;100778.31;114362;1204;23356;-55
2021/03/23 07:33:50;;;;;;;12.95;2.60;;;;;;;3.26;73.74;100769.52;114334;1208;23195;-57
2021/03/23 07:36:24;;;;;;;16.70;2.60;;;;;;;3.28;73.54;100773.44;114594;1208;23205;-57
2021/03/23 07:38:58;;;;;;;15.87;3.27;;;;;;;3.29;73.65;100783.26;114361;1208;23141;-57
2021/03/23 07:41:33;;;;;;;15.15;4.15;;;;;;;3.27;73.61;100774.62;114605;1209;24807;-58
2021/03/23 07:44:13;;;;;;;16.70;2.70;;;;;;;3.31;74.01;100777.31;114351;1206;26159;-57
2021/03/23 07:46:46;;;;;;;22.70;3.40;;;;;;;3.34;74.07;100770.98;114478;1206;23432;-57
2021/03/23 07:49:32;;;;;;;13.80;2.80;;;;;;;3.35;74.17;100786.35;114428;1209;23149;-58
2021/03/23 07:52:09;;;;;;;13.90;3.27;;;;;;;3.39;74.30;100787.08;114345;1206;23290;-57
2021/03/23 07:54:41;;;;;;;19.60;3.50;;;;;;;3.40;74.49;100785.08;114650;1206;26310;-57
2021/03/23 07:57:29;;;;;;;14.30;3.10;;;;;;;3.41;74.62;100781.13;114612;1208;23144;-58
2021/03/23 08:00:29;;;;;;;23.00;4.70;;;;;;;3.42;74.79;100788.98;114660;1208;25960;-57
2021/03/23 08:03:26;;;;;;;20.53;3.47;;;;;;;3.42;74.81;100786.23;114274;1208;27034;-58
2021/03/23 08:06:02;;;;;;;14.93;4.13;;;;;;;3.44;74.88;100783.83;114222;1205;23269;-57
2021/03/23 08:08:53;;;;;;;12.70;2.50;;;;;;;3.46;75.06;100786.95;114328;1202;23186;-57
2021/03/23 08:11:27;;;;;;;;;;;;;;;3.51;75.02;100785.70;114712;1206;23105;-58
2021/03/23 08:14:11;;;;;;;20.40;4.60;;;;;;;3.56;75.32;100794.28;114532;1201;21649;-57
2021/03/23 08:17:06;;;;;;;22.00;4.55;;;;;;;3.64;75.24;100792.22;115072;1202;24019;-56
2021/03/23 08:20:06;;;;;;;17.55;4.45;;;;;;;3.72;75.49;100786.16;114653;1202;23109;-57
2021/03/23 08:23:04;;;;;;;22.35;5.25;;;;;;;3.82;75.75;100800.98;114853;1198;23259;-57
2021/03/23 08:25:45;;;;;;;22.75;6.10;;;;;;;3.89;75.90;100800.88;115232;1200;23644;-57
2021/03/23 08:28:25;;;;;;;18.35;5.50;;;;;;;3.95;75.98;100799.20;115316;1200;23535;-56
2021/03/23 08:31:17;;;;;;;19.77;5.57;;;;;;;3.97;75.94;100799.56;115430;1202;23090;-57
2021/03/23 08:34:07;;;;;;;20.23;5.70;;;;;;;3.99;75.86;100803.44;114859;1199;25971;-57
2021/03/23 08:36:58;;;;;;;17.33;5.37;;;;;;;4.04;76.30;100811.25;114764;1202;23208;-58
2021/03/23 08:39:36;;;;;;;23.60;6.47;;;;;;;4.06;76.75;100805.30;115716;1199;27467;-58
2021/03/23 08:42:11;;;;;;;19.40;6.70;;;;;;;4.06;76.40;100806.09;115265;1199;23124;-58
2021/03/23 08:44:47;;;;;;;20.80;6.65;;;;;;;4.13;76.87;100807.95;115092;1202;23561;-58
2021/03/23 08:47:27;;;;;;;24.65;7.35;;;;;;;4.16;76.89;100814.63;115706;1202;23125;-57
2021/03/23 08:50:01;;;;;;;19.23;5.63;;;;;;;4.20;76.82;100818.11;115225;1202;23132;-56
2021/03/23 08:52:43;;;;;;;18.40;4.65;;;;;;;4.21;77.25;100825.18;114492;1201;23114;-58
2021/03/23 08:55:47;;;;;;;18.33;5.90;;;;;;;4.22;77.04;100813.69;114591;1202;23101;-57
2021/03/23 08:58:19;;;;;;;19.23;5.37;;;;;;;4.23;77.15;100809.74;115184;1202;23132;-56
2021/03/23 09:00:56;;;;;;;20.20;6.17;;;;;;;4.25;77.43;100817.60;114589;1202;23146;-56
2021/03/23 09:03:45;;;;;;;17.43;5.00;;;;;;;4.29;77.48;100818.31;114664;1202;23102;-57
2021/03/23 09:06:17;;;;;;;19.20;5.33;;;;;;;4.34;77.50;100821.40;114618;1200;27242;-57
2021/03/23 09:09:16;;;;;;;16.37;4.83;;;;;;;4.35;77.47;100822.94;114972;1202;23250;-57
2021/03/23 09:12:04;;;;;;;14.70;3.75;;;;;;;4.36;77.86;100829.26;114641;1200;27921;-54
2021/03/23 09:14:54;;;;;;;23.75;5.30;;;;;;;4.31;77.47;100827.75;114509;1202;23132;-56
2021/03/23 09:17:38;;;;;;;19.30;6.07;;;;;;;4.28;77.86;100847.17;114561;1202;23109;-57
2021/03/23 09:20:39;;;;;;;17.00;4.45;;;;;;;4.27;78.23;100834.55;115246;1203;23195;-57
2021/03/23 09:23:45;;;;;;;19.10;6.85;;;;;;;4.24;77.81;100838.95;114990;1199;23185;-59
2021/03/23 09:26:55;;;;;;;19.37;6.07;;;;;;;4.22;78.40;100833.04;114979;1203;23111;-59
2021/03/23 09:29:45;;;;;;;16.30;4.85;;;;;;;4.21;79.42;100844.52;114805;1206;23278;-59
2021/03/23 09:32:20;;;;;;;13.68;4.98;;;;;;;4.17;79.22;100841.83;114858;1205;23142;-57
2021/03/23 09:35:14;;;;;;;20.40;5.85;;;;;;;4.16;79.01;100829.20;114959;1205;23125;-57
2021/03/23 09:37:56;;;;;;;15.00;4.40;;;;;;;4.17;79.24;100830.77;115653;1209;23157;-58
2021/03/23 09:40:55;;;;;;;18.80;5.40;;;;;;;4.17;79.40;100827.22;115143;1204;25070;-57
2021/03/23 09:43:36;;;;;;;14.15;4.30;;;;;;;4.17;80.40;100832.75;115002;1209;23301;-59
2021/03/23 09:46:37;;;;;;;16.05;5.60;;;;;;;4.17;79.66;100828.02;114698;1206;23116;-59
2021/03/23 09:49:19;;;;;;;18.35;5.05;;;;;;;4.19;80.51;100830.34;114830;1209;23404;-57
2021/03/23 09:51:54;;;;;;;18.10;5.70;;;;;;;4.18;80.10;100826.04;114782;1207;23270;-59
2021/03/23 09:54:27;;;;;;;24.05;6.90;;;;;;;4.22;79.96;100830.27;115052;1206;23227;-59
2021/03/23 09:57:00;;;;;;;21.85;7.05;;;;;;;4.26;79.77;100822.73;114636;1206;26113;-56
2021/03/23 09:59:34;;;;;;;21.00;6.93;;;;;;;4.30;79.82;100830.95;115092;1204;23106;-57
2021/03/23 10:02:20;;;;;;;16.40;6.00;;;;;;;4.32;80.07;100829.33;114936;1206;23137;-58
2021/03/23 10:04:54;;;;;;;20.45;6.20;;;;;;;4.36;80.26;100829.26;115022;1202;23117;-59
2021/03/23 10:07:30;;;;;;;19.47;5.80;;;;;;;4.37;80.37;100831.59;115445;1199;23106;-57
2021/03/23 10:10:10;;;;;;;16.93;6.70;;;;;;;4.40;80.04;100827.20;115324;1199;23105;-59
2021/03/23 10:12:40;;;;;;;16.30;6.90;;;;;;;4.43;80.08;100826.38;115322;1202;23112;-59
2021/03/23 10:15:32;;;;;;;19.83;5.98;;;;;;;4.46;80.27;100833.81;115213;1200;23140;-59
2021/03/23 10:18:12;;;;;;;18.95;5.20;;;;;;;4.46;80.53;100834.59;115633;1200;23166;-58
2021/03/23 10:20:46;;;;;;;20.88;6.98;;;;;;;4.48;80.76;100834.95;115683;1199;27375;-59
2021/03/23 10:23:15;;;;;;;17.87;6.37;;;;;;;4.52;80.94;100838.43;115189;1199;23106;-59
2021/03/23 10:25:45;;;;;;;20.35;8.15;;;;;;;4.57;80.89;100832.39;115224;1203;23135;-57
2021/03/23 10:28:26;;;;;;;18.90;6.97;;;;;;;4.61;80.79;100830.37;115261;1200;23109;-56
2021/03/23 10:31:00;;;;;;;18.87;6.73;;;;;;;4.64;80.52;100834.25;115318;1199;23179;-58
2021/03/23 10:33:33;;;;;;;19.83;7.63;;;;;;;4.69;80.82;100837.32;115224;1200;23090;-59
2021/03/23 10:36:03;;;;;;;17.80;6.00;;;;;;;4.73;80.54;100843.56;115681;1200;23124;-59
2021/03/23 10:38:39;;;;;;;20.15;8.10;;;;;;;4.76;80.52;100828.08;115332;1199;23101;-59
2021/03/23 10:41:35;;;;;;;22.17;6.60;;;;;;;4.80;80.29;100832.34;115329;1203;24890;-58
2021/03/23 10:44:20;;;;;;;20.90;5.60;;;;;;;4.83;80.55;100848.10;115220;1199;23109;-61
2021/03/23 10:46:51;;;;;;;19.00;5.80;;;;;;;4.85;80.45;100844.91;115278;1199;25997;-58
2021/03/23 10:49:35;;;;;;;19.90;5.65;;;;;;;4.88;80.76;100844.83;115231;1199;23106;-60
2021/03/23 10:52:25;;;;;;;23.07;6.97;;;;;;;4.93;80.81;100844.34;115312;1198;23176;-59
2021/03/23 10:55:14;;;;;;;17.25;5.43;;;;;;;5.02;80.88;100845.75;115141;1203;25283;-58
2021/03/23 10:57:43;;;;;;;18.53;5.80;;;;;;;5.13;81.27;100857.39;115343;1199;23114;-58
2021/03/23 11:00:26;;;;;;;14.83;5.40;;;;;;;5.23;80.77;100837.01;115153;1200;23103;-59
2021/03/23 11:03:11;;;;;;;17.35;5.25;;;;;;;5.37;80.53;100836.69;115212;1199;23084;-58
2021/03/23 11:05:45;;;;;;;14.90;4.10;;;;;;;5.48;80.22;100840.77;115427;1200;26052;-58
2021/03/23 11:08:16;;;;;;;19.35;6.45;;;;;;;5.55;79.85;100837.86;115261;1200;23338;-58
2021/03/23 11:10:46;;;;;;;17.73;5.03;;;;;;;5.62;79.28;100840.47;115280;1200;23282;-58
2021/03/23 11:13:17;;;;;;;17.35;5.50;;;;;;;5.63;79.70;100836.48;115329;1202;23081;-58
2021/03/23 11:15:49;;;;;;;14.93;4.93;;;;;;;5.68;79.46;100854.58;115368;1200;23102;-58
2021/03/23 11:18:23;;;;;;;18.40;5.50;;;;;;;5.69;79.15;100843.06;115536;1200;23127;-59
2021/03/23 11:20:55;;;;;;;13.25;4.30;;;;;;;5.75;79.50;100844.10;115295;1199;23245;-60
2021/03/23 11:23:38;;;;;;;15.43;5.30;;;;;;;5.83;79.34;100841.17;116579;1199;26000;-58
2021/03/23 11:26:10;;;;;;;19.00;5.30;;;;;;;5.84;78.61;100834.44;115358;1199;23212;-60
2021/03/23 11:28:39;;;;;;;15.55;5.05;;;;;;;5.84;78.59;100838.00;115415;1200;23109;-58
2021/03/23 11:31:10;;;;;;;17.15;5.50;;;;;;;5.83;78.72;100846.72;115295;1200;25061;-59
2021/03/23 11:33:39;;;;;;;17.50;4.27;;;;;;;5.78;78.41;100847.22;115293;1200;23102;-58
2021/03/23 11:36:09;;;;;;;16.15;4.95;;;;;;;5.74;78.86;100841.77;115248;1200;23138;-59
2021/03/23 11:38:39;;;;;;;17.78;5.13;;;;;;;5.70;79.12;100841.86;115258;1200;23137;-58
2021/03/23 11:41:11;;;;;;;;;;;;;;;5.66;79.31;100846.70;115184;1206;28678;-55
2021/03/23 11:43:45;;;;;;;14.20;4.23;;;;;;;5.60;79.53;100848.44;115030;1200;21678;-60
2021/03/23 11:46:22;;;;;;;13.97;3.50;;;;;;;5.57;79.79;100854.03;115521;1200;23091;-58
2021/03/23 11:49:04;;;;;;;17.17;4.77;;;;;;;5.52;79.99;100854.56;115518;1202;23114;-60
2021/03/23 11:51:35;;;;;;;18.40;4.60;;;;;;;5.52;80.43;100860.10;115279;1203;23237;-59
2021/03/23 11:54:06;;;;;;;15.40;5.30;;;;;;;5.53;80.38;100845.81;115279;1202;23209;-60